sensor_id;sensor_type;location;lat;lon;timestamp;P1;durP1;ratioP1;P2;durP2;ratioP2
20456;SDS011;10387;51.102;6.848;2024-01-30T00:01:10;16.07;;;12.60;;
20456;SDS011;10387;51.102;6.848;2024-01-30T00:03:39;16.97;;;12.43;;
20456;SDS011;10387;51.102;6.848;2024-01-30T00:06:10;18.13;;;13.33;;
20456;SDS011;10387;51.102;6.848;2024-01-30T00:08:37;15.43;;;13.03;;
20456;SDS011;10387;51.102;6.848;2024-01-30T00:11:03;17.10;;;13.27;;
20456;SDS011;10387;51.102;6.848;2024-01-30T00:13:32;18.67;;;14.00;;
20456;SDS011;10387;51.102;6.848;2024-01-30T00:16:19;16.33;;;13.17;;
20456;SDS011;10387;51.102;6.848;2024-01-30T00:18:46;16.97;;;12.97;;
20456;SDS011;10387;51.102;6.848;2024-01-30T00:21:14;17.30;;;13.40;;
20456;SDS011;10387;51.102;6.848;2024-01-30T00:23:40;18.10;;;13.67;;
20456;SDS011;10387;51.102;6.848;2024-01-30T00:26:08;15.23;;;12.83;;
20456;SDS011;10387;51.102;6.848;2024-01-30T00:28:34;17.77;;;13.50;;
20456;SDS011;10387;51.102;6.848;2024-01-30T00:31:03;16.10;;;12.70;;
20456;SDS011;10387;51.102;6.848;2024-01-30T00:33:33;16.70;;;12.17;;
20456;SDS011;10387;51.102;6.848;2024-01-30T00:35:59;16.27;;;12.97;;
20456;SDS011;10387;51.102;6.848;2024-01-30T00:38:30;17.33;;;13.00;;
20456;SDS011;10387;51.102;6.848;2024-01-30T00:41:01;20.33;;;13.67;;
20456;SDS011;10387;51.102;6.848;2024-01-30T00:43:28;18.23;;;13.83;;
20456;SDS011;10387;51.102;6.848;2024-01-30T00:46:05;16.90;;;12.90;;
20456;SDS011;10387;51.102;6.848;2024-01-30T00:48:32;16.37;;;13.03;;
20456;SDS011;10387;51.102;6.848;2024-01-30T00:50:58;19.50;;;13.53;;
20456;SDS011;10387;51.102;6.848;2024-01-30T00:53:29;15.97;;;12.33;;
20456;SDS011;10387;51.102;6.848;2024-01-30T00:55:55;17.83;;;13.00;;
20456;SDS011;10387;51.102;6.848;2024-01-30T00:58:26;19.40;;;13.27;;
20456;SDS011;10387;51.102;6.848;2024-01-30T01:00:52;15.57;;;13.10;;
20456;SDS011;10387;51.102;6.848;2024-01-30T01:03:18;19.77;;;13.20;;
20456;SDS011;10387;51.102;6.848;2024-01-30T01:05:45;19.53;;;13.37;;
20456;SDS011;10387;51.102;6.848;2024-01-30T01:08:12;15.23;;;12.63;;
20456;SDS011;10387;51.102;6.848;2024-01-30T01:10:40;16.30;;;12.53;;
20456;SDS011;10387;51.102;6.848;2024-01-30T01:13:06;18.73;;;14.73;;
20456;SDS011;10387;51.102;6.848;2024-01-30T01:15:32;18.67;;;13.00;;
20456;SDS011;10387;51.102;6.848;2024-01-30T01:17:59;20.87;;;13.97;;
20456;SDS011;10387;51.102;6.848;2024-01-30T01:20:26;17.90;;;13.03;;
20456;SDS011;10387;51.102;6.848;2024-01-30T01:22:52;16.43;;;12.63;;
20456;SDS011;10387;51.102;6.848;2024-01-30T01:25:22;19.87;;;12.90;;
20456;SDS011;10387;51.102;6.848;2024-01-30T01:27:48;18.80;;;13.17;;
20456;SDS011;10387;51.102;6.848;2024-01-30T01:30:18;17.80;;;13.70;;
20456;SDS011;10387;51.102;6.848;2024-01-30T01:32:47;17.73;;;13.57;;
20456;SDS011;10387;51.102;6.848;2024-01-30T01:35:23;17.30;;;13.03;;
20456;SDS011;10387;51.102;6.848;2024-01-30T01:37:50;18.23;;;13.43;;
20456;SDS011;10387;51.102;6.848;2024-01-30T01:40:35;17.47;;;13.60;;
20456;SDS011;10387;51.102;6.848;2024-01-30T01:43:03;18.30;;;13.13;;
20456;SDS011;10387;51.102;6.848;2024-01-30T01:45:30;18.77;;;13.53;;
20456;SDS011;10387;51.102;6.848;2024-01-30T01:48:00;17.20;;;13.13;;
20456;SDS011;10387;51.102;6.848;2024-01-30T01:50:28;15.30;;;12.43;;
20456;SDS011;10387;51.102;6.848;2024-01-30T01:52:54;18.50;;;13.73;;
20456;SDS011;10387;51.102;6.848;2024-01-30T01:55:23;19.33;;;13.53;;
20456;SDS011;10387;51.102;6.848;2024-01-30T01:57:53;17.50;;;13.57;;
20456;SDS011;10387;51.102;6.848;2024-01-30T02:00:19;15.87;;;13.13;;
20456;SDS011;10387;51.102;6.848;2024-01-30T02:02:50;17.13;;;13.80;;
20456;SDS011;10387;51.102;6.848;2024-01-30T02:05:19;18.13;;;13.90;;
20456;SDS011;10387;51.102;6.848;2024-01-30T02:07:45;16.60;;;12.87;;
20456;SDS011;10387;51.102;6.848;2024-01-30T02:10:11;19.87;;;13.70;;
20456;SDS011;10387;51.102;6.848;2024-01-30T02:12:38;15.83;;;12.43;;
20456;SDS011;10387;51.102;6.848;2024-01-30T02:15:04;19.30;;;13.03;;
20456;SDS011;10387;51.102;6.848;2024-01-30T02:17:32;17.30;;;13.20;;
20456;SDS011;10387;51.102;6.848;2024-01-30T02:19:59;17.40;;;13.17;;
20456;SDS011;10387;51.102;6.848;2024-01-30T02:22:25;17.97;;;14.07;;
20456;SDS011;10387;51.102;6.848;2024-01-30T02:24:51;17.60;;;12.77;;
20456;SDS011;10387;51.102;6.848;2024-01-30T02:27:17;15.43;;;12.63;;
20456;SDS011;10387;51.102;6.848;2024-01-30T02:29:43;15.73;;;12.63;;
20456;SDS011;10387;51.102;6.848;2024-01-30T02:32:13;16.93;;;12.47;;
20456;SDS011;10387;51.102;6.848;2024-01-30T02:34:39;18.80;;;12.47;;
20456;SDS011;10387;51.102;6.848;2024-01-30T02:37:05;18.50;;;12.83;;
20456;SDS011;10387;51.102;6.848;2024-01-30T02:39:31;16.97;;;12.93;;
20456;SDS011;10387;51.102;6.848;2024-01-30T02:41:58;15.93;;;12.57;;
20456;SDS011;10387;51.102;6.848;2024-01-30T02:44:27;15.90;;;12.60;;
20456;SDS011;10387;51.102;6.848;2024-01-30T02:46:53;16.00;;;12.80;;
20456;SDS011;10387;51.102;6.848;2024-01-30T02:49:20;14.80;;;12.33;;
20456;SDS011;10387;51.102;6.848;2024-01-30T02:51:47;16.97;;;12.27;;
20456;SDS011;10387;51.102;6.848;2024-01-30T02:54:13;15.77;;;12.20;;
20456;SDS011;10387;51.102;6.848;2024-01-30T02:56:40;15.90;;;11.83;;
20456;SDS011;10387;51.102;6.848;2024-01-30T02:59:07;16.30;;;12.20;;
20456;SDS011;10387;51.102;6.848;2024-01-30T03:01:33;13.80;;;11.53;;
20456;SDS011;10387;51.102;6.848;2024-01-30T03:03:59;13.73;;;11.90;;
20456;SDS011;10387;51.102;6.848;2024-01-30T03:06:25;14.90;;;11.90;;
20456;SDS011;10387;51.102;6.848;2024-01-30T03:08:52;15.77;;;13.03;;
20456;SDS011;10387;51.102;6.848;2024-01-30T03:11:18;14.70;;;11.97;;
20456;SDS011;10387;51.102;6.848;2024-01-30T03:13:45;17.00;;;12.37;;
20456;SDS011;10387;51.102;6.848;2024-01-30T03:16:12;14.03;;;11.80;;
20456;SDS011;10387;51.102;6.848;2024-01-30T03:18:39;14.77;;;11.90;;
20456;SDS011;10387;51.102;6.848;2024-01-30T03:21:05;14.00;;;11.47;;
20456;SDS011;10387;51.102;6.848;2024-01-30T03:23:31;15.77;;;11.43;;
20456;SDS011;10387;51.102;6.848;2024-01-30T03:25:57;14.63;;;11.70;;
20456;SDS011;10387;51.102;6.848;2024-01-30T03:28:24;17.23;;;12.20;;
20456;SDS011;10387;51.102;6.848;2024-01-30T03:30:50;15.17;;;11.10;;
20456;SDS011;10387;51.102;6.848;2024-01-30T03:33:16;16.37;;;11.37;;
20456;SDS011;10387;51.102;6.848;2024-01-30T03:35:43;14.47;;;10.93;;
20456;SDS011;10387;51.102;6.848;2024-01-30T03:38:09;15.87;;;11.63;;
20456;SDS011;10387;51.102;6.848;2024-01-30T03:40:35;16.00;;;12.07;;
20456;SDS011;10387;51.102;6.848;2024-01-30T03:43:01;14.17;;;11.50;;
20456;SDS011;10387;51.102;6.848;2024-01-30T03:45:37;17.80;;;12.03;;
20456;SDS011;10387;51.102;6.848;2024-01-30T03:48:03;14.43;;;11.87;;
20456;SDS011;10387;51.102;6.848;2024-01-30T03:50:31;18.40;;;12.33;;
20456;SDS011;10387;51.102;6.848;2024-01-30T03:52:59;16.17;;;12.13;;
20456;SDS011;10387;51.102;6.848;2024-01-30T03:55:25;14.93;;;11.80;;
20456;SDS011;10387;51.102;6.848;2024-01-30T04:00:23;13.07;;;11.30;;
20456;SDS011;10387;51.102;6.848;2024-01-30T04:02:49;18.57;;;12.23;;
20456;SDS011;10387;51.102;6.848;2024-01-30T04:05:16;14.43;;;11.37;;
20456;SDS011;10387;51.102;6.848;2024-01-30T04:07:44;19.40;;;12.53;;
20456;SDS011;10387;51.102;6.848;2024-01-30T04:10:11;18.63;;;12.30;;
20456;SDS011;10387;51.102;6.848;2024-01-30T04:12:39;14.37;;;11.67;;
20456;SDS011;10387;51.102;6.848;2024-01-30T04:15:05;16.70;;;12.30;;
20456;SDS011;10387;51.102;6.848;2024-01-30T04:17:32;15.53;;;12.43;;
20456;SDS011;10387;51.102;6.848;2024-01-30T04:19:58;15.47;;;12.23;;
20456;SDS011;10387;51.102;6.848;2024-01-30T04:22:24;15.80;;;12.33;;
20456;SDS011;10387;51.102;6.848;2024-01-30T04:24:50;17.50;;;12.17;;
20456;SDS011;10387;51.102;6.848;2024-01-30T04:27:17;16.17;;;11.07;;
20456;SDS011;10387;51.102;6.848;2024-01-30T04:29:43;15.87;;;11.90;;
20456;SDS011;10387;51.102;6.848;2024-01-30T04:32:12;15.83;;;11.97;;
20456;SDS011;10387;51.102;6.848;2024-01-30T04:34:46;15.27;;;12.00;;
20456;SDS011;10387;51.102;6.848;2024-01-30T04:37:15;15.20;;;12.10;;
20456;SDS011;10387;51.102;6.848;2024-01-30T04:39:42;16.37;;;12.40;;
20456;SDS011;10387;51.102;6.848;2024-01-30T04:42:08;16.33;;;12.70;;
20456;SDS011;10387;51.102;6.848;2024-01-30T04:44:34;16.13;;;11.73;;
20456;SDS011;10387;51.102;6.848;2024-01-30T04:47:00;16.67;;;12.47;;
20456;SDS011;10387;51.102;6.848;2024-01-30T04:49:27;16.87;;;11.77;;
20456;SDS011;10387;51.102;6.848;2024-01-30T04:51:54;15.97;;;11.67;;
20456;SDS011;10387;51.102;6.848;2024-01-30T04:54:21;15.33;;;11.90;;
20456;SDS011;10387;51.102;6.848;2024-01-30T04:56:47;15.93;;;12.57;;
20456;SDS011;10387;51.102;6.848;2024-01-30T04:59:13;14.87;;;11.77;;
20456;SDS011;10387;51.102;6.848;2024-01-30T05:01:41;16.53;;;12.53;;
20456;SDS011;10387;51.102;6.848;2024-01-30T05:04:11;15.00;;;12.50;;
20456;SDS011;10387;51.102;6.848;2024-01-30T05:06:37;15.40;;;11.60;;
20456;SDS011;10387;51.102;6.848;2024-01-30T05:09:04;15.50;;;11.63;;
20456;SDS011;10387;51.102;6.848;2024-01-30T05:11:36;15.77;;;12.30;;
20456;SDS011;10387;51.102;6.848;2024-01-30T05:14:03;15.60;;;11.83;;
20456;SDS011;10387;51.102;6.848;2024-01-30T05:16:30;15.33;;;12.10;;
20456;SDS011;10387;51.102;6.848;2024-01-30T05:18:57;16.03;;;12.60;;
20456;SDS011;10387;51.102;6.848;2024-01-30T05:21:25;16.27;;;12.83;;
20456;SDS011;10387;51.102;6.848;2024-01-30T05:23:51;14.87;;;11.50;;
20456;SDS011;10387;51.102;6.848;2024-01-30T05:26:17;14.63;;;12.13;;
20456;SDS011;10387;51.102;6.848;2024-01-30T05:28:44;16.83;;;11.53;;
20456;SDS011;10387;51.102;6.848;2024-01-30T05:31:10;16.17;;;12.43;;
20456;SDS011;10387;51.102;6.848;2024-01-30T05:36:11;19.33;;;13.10;;
20456;SDS011;10387;51.102;6.848;2024-01-30T05:38:37;18.70;;;12.97;;
20456;SDS011;10387;51.102;6.848;2024-01-30T05:41:07;15.43;;;12.00;;
20456;SDS011;10387;51.102;6.848;2024-01-30T05:43:35;15.60;;;12.23;;
20456;SDS011;10387;51.102;6.848;2024-01-30T05:46:01;17.00;;;12.47;;
20456;SDS011;10387;51.102;6.848;2024-01-30T05:48:27;17.53;;;12.40;;
20456;SDS011;10387;51.102;6.848;2024-01-30T05:50:54;18.30;;;13.37;;
20456;SDS011;10387;51.102;6.848;2024-01-30T05:53:22;17.83;;;13.17;;
20456;SDS011;10387;51.102;6.848;2024-01-30T05:55:55;14.67;;;11.73;;
20456;SDS011;10387;51.102;6.848;2024-01-30T05:58:25;17.13;;;13.13;;
20456;SDS011;10387;51.102;6.848;2024-01-30T06:00:51;18.17;;;12.87;;
20456;SDS011;10387;51.102;6.848;2024-01-30T06:03:18;16.03;;;13.00;;
20456;SDS011;10387;51.102;6.848;2024-01-30T06:05:44;19.43;;;13.87;;
20456;SDS011;10387;51.102;6.848;2024-01-30T06:08:10;19.23;;;13.07;;
20456;SDS011;10387;51.102;6.848;2024-01-30T06:10:38;18.40;;;13.47;;
20456;SDS011;10387;51.102;6.848;2024-01-30T06:13:04;17.30;;;12.33;;
20456;SDS011;10387;51.102;6.848;2024-01-30T06:15:31;16.77;;;12.37;;
20456;SDS011;10387;51.102;6.848;2024-01-30T06:17:58;16.07;;;11.80;;
20456;SDS011;10387;51.102;6.848;2024-01-30T06:20:25;16.80;;;12.67;;
20456;SDS011;10387;51.102;6.848;2024-01-30T06:22:52;16.60;;;12.20;;
20456;SDS011;10387;51.102;6.848;2024-01-30T06:25:18;15.50;;;11.93;;
20456;SDS011;10387;51.102;6.848;2024-01-30T06:27:45;16.77;;;13.10;;
20456;SDS011;10387;51.102;6.848;2024-01-30T06:30:11;18.33;;;11.97;;
20456;SDS011;10387;51.102;6.848;2024-01-30T06:32:37;16.00;;;11.37;;
20456;SDS011;10387;51.102;6.848;2024-01-30T06:35:04;16.00;;;12.07;;
20456;SDS011;10387;51.102;6.848;2024-01-30T06:37:31;17.67;;;11.87;;
20456;SDS011;10387;51.102;6.848;2024-01-30T06:39:57;14.90;;;12.33;;
20456;SDS011;10387;51.102;6.848;2024-01-30T06:44:53;18.30;;;11.53;;
20456;SDS011;10387;51.102;6.848;2024-01-30T06:47:21;15.97;;;12.50;;
20456;SDS011;10387;51.102;6.848;2024-01-30T06:49:47;15.23;;;11.30;;
20456;SDS011;10387;51.102;6.848;2024-01-30T06:52:14;16.03;;;12.30;;
20456;SDS011;10387;51.102;6.848;2024-01-30T06:54:42;19.23;;;12.53;;
20456;SDS011;10387;51.102;6.848;2024-01-30T06:57:09;15.50;;;12.00;;
20456;SDS011;10387;51.102;6.848;2024-01-30T06:59:37;15.30;;;11.13;;
20456;SDS011;10387;51.102;6.848;2024-01-30T07:02:12;15.27;;;12.00;;
20456;SDS011;10387;51.102;6.848;2024-01-30T07:04:47;19.37;;;12.60;;
20456;SDS011;10387;51.102;6.848;2024-01-30T07:07:15;15.37;;;12.10;;
20456;SDS011;10387;51.102;6.848;2024-01-30T07:09:42;13.07;;;11.43;;
20456;SDS011;10387;51.102;6.848;2024-01-30T07:12:08;14.40;;;11.17;;
20456;SDS011;10387;51.102;6.848;2024-01-30T07:14:35;18.47;;;12.00;;
20456;SDS011;10387;51.102;6.848;2024-01-30T07:17:02;13.80;;;11.00;;
20456;SDS011;10387;51.102;6.848;2024-01-30T07:19:28;15.00;;;11.87;;
20456;SDS011;10387;51.102;6.848;2024-01-30T07:21:55;14.87;;;11.77;;
20456;SDS011;10387;51.102;6.848;2024-01-30T07:24:22;15.17;;;12.20;;
20456;SDS011;10387;51.102;6.848;2024-01-30T07:26:48;15.27;;;12.00;;
20456;SDS011;10387;51.102;6.848;2024-01-30T07:29:17;16.37;;;12.10;;
20456;SDS011;10387;51.102;6.848;2024-01-30T07:31:44;15.00;;;11.60;;
20456;SDS011;10387;51.102;6.848;2024-01-30T07:34:12;17.47;;;12.60;;
20456;SDS011;10387;51.102;6.848;2024-01-30T07:36:39;17.03;;;12.50;;
20456;SDS011;10387;51.102;6.848;2024-01-30T07:39:05;16.10;;;11.67;;
20456;SDS011;10387;51.102;6.848;2024-01-30T07:41:41;14.20;;;12.07;;
20456;SDS011;10387;51.102;6.848;2024-01-30T07:44:07;16.53;;;11.53;;
20456;SDS011;10387;51.102;6.848;2024-01-30T07:46:33;16.03;;;11.33;;
20456;SDS011;10387;51.102;6.848;2024-01-30T07:48:59;14.27;;;11.13;;
20456;SDS011;10387;51.102;6.848;2024-01-30T07:51:29;15.37;;;11.70;;
20456;SDS011;10387;51.102;6.848;2024-01-30T07:53:59;16.77;;;11.83;;
20456;SDS011;10387;51.102;6.848;2024-01-30T07:56:25;14.23;;;11.63;;
20456;SDS011;10387;51.102;6.848;2024-01-30T07:58:56;16.50;;;12.07;;
20456;SDS011;10387;51.102;6.848;2024-01-30T08:01:22;15.53;;;12.03;;
20456;SDS011;10387;51.102;6.848;2024-01-30T08:03:48;17.03;;;12.43;;
20456;SDS011;10387;51.102;6.848;2024-01-30T08:06:14;17.93;;;11.93;;
20456;SDS011;10387;51.102;6.848;2024-01-30T08:08:41;15.87;;;11.77;;
20456;SDS011;10387;51.102;6.848;2024-01-30T08:11:11;15.70;;;11.27;;
20456;SDS011;10387;51.102;6.848;2024-01-30T08:13:37;14.23;;;10.67;;
20456;SDS011;10387;51.102;6.848;2024-01-30T08:16:05;13.37;;;11.23;;
20456;SDS011;10387;51.102;6.848;2024-01-30T08:21:01;12.40;;;10.37;;
20456;SDS011;10387;51.102;6.848;2024-01-30T08:23:28;13.00;;;11.30;;
20456;SDS011;10387;51.102;6.848;2024-01-30T08:25:54;14.73;;;11.00;;
20456;SDS011;10387;51.102;6.848;2024-01-30T08:28:23;12.40;;;10.57;;
20456;SDS011;10387;51.102;6.848;2024-01-30T08:30:50;14.83;;;11.50;;
20456;SDS011;10387;51.102;6.848;2024-01-30T08:33:17;13.30;;;11.50;;
20456;SDS011;10387;51.102;6.848;2024-01-30T08:35:43;14.83;;;11.20;;
20456;SDS011;10387;51.102;6.848;2024-01-30T08:38:09;14.97;;;11.73;;
20456;SDS011;10387;51.102;6.848;2024-01-30T08:40:37;14.83;;;10.80;;
20456;SDS011;10387;51.102;6.848;2024-01-30T08:43:04;14.73;;;10.93;;
20456;SDS011;10387;51.102;6.848;2024-01-30T08:45:30;13.87;;;10.90;;
20456;SDS011;10387;51.102;6.848;2024-01-30T08:47:57;13.63;;;10.70;;
20456;SDS011;10387;51.102;6.848;2024-01-30T08:50:23;15.93;;;11.40;;
20456;SDS011;10387;51.102;6.848;2024-01-30T08:52:52;14.83;;;11.57;;
20456;SDS011;10387;51.102;6.848;2024-01-30T08:55:18;14.80;;;11.33;;
20456;SDS011;10387;51.102;6.848;2024-01-30T08:57:44;14.10;;;10.23;;
20456;SDS011;10387;51.102;6.848;2024-01-30T09:00:11;13.90;;;10.90;;
20456;SDS011;10387;51.102;6.848;2024-01-30T09:02:37;13.73;;;10.47;;
20456;SDS011;10387;51.102;6.848;2024-01-30T09:07:33;13.40;;;10.40;;
20456;SDS011;10387;51.102;6.848;2024-01-30T09:09:59;11.87;;;10.30;;
20456;SDS011;10387;51.102;6.848;2024-01-30T09:12:25;15.13;;;10.83;;
20456;SDS011;10387;51.102;6.848;2024-01-30T09:14:51;12.17;;;10.97;;
20456;SDS011;10387;51.102;6.848;2024-01-30T09:17:20;12.37;;;10.87;;
20456;SDS011;10387;51.102;6.848;2024-01-30T09:19:47;15.87;;;11.17;;
20456;SDS011;10387;51.102;6.848;2024-01-30T09:22:13;14.67;;;10.90;;
20456;SDS011;10387;51.102;6.848;2024-01-30T09:24:40;13.57;;;10.47;;
20456;SDS011;10387;51.102;6.848;2024-01-30T09:27:07;16.27;;;12.03;;
20456;SDS011;10387;51.102;6.848;2024-01-30T09:29:33;14.60;;;10.87;;
20456;SDS011;10387;51.102;6.848;2024-01-30T09:32:04;15.87;;;11.47;;
20456;SDS011;10387;51.102;6.848;2024-01-30T09:34:31;14.50;;;11.07;;
20456;SDS011;10387;51.102;6.848;2024-01-30T09:36:59;15.53;;;11.10;;
20456;SDS011;10387;51.102;6.848;2024-01-30T09:39:43;15.27;;;11.73;;
20456;SDS011;10387;51.102;6.848;2024-01-30T09:42:20;16.47;;;12.00;;
20456;SDS011;10387;51.102;6.848;2024-01-30T09:44:51;13.93;;;11.10;;
20456;SDS011;10387;51.102;6.848;2024-01-30T09:47:19;15.40;;;10.90;;
20456;SDS011;10387;51.102;6.848;2024-01-30T09:49:46;13.23;;;10.90;;
20456;SDS011;10387;51.102;6.848;2024-01-30T09:52:12;13.27;;;10.93;;
20456;SDS011;10387;51.102;6.848;2024-01-30T09:54:39;13.80;;;11.33;;
20456;SDS011;10387;51.102;6.848;2024-01-30T09:57:06;12.93;;;10.27;;
20456;SDS011;10387;51.102;6.848;2024-01-30T09:59:34;14.70;;;11.70;;
20456;SDS011;10387;51.102;6.848;2024-01-30T10:02:01;13.20;;;10.57;;
20456;SDS011;10387;51.102;6.848;2024-01-30T10:04:29;14.57;;;10.17;;
20456;SDS011;10387;51.102;6.848;2024-01-30T10:06:57;14.50;;;10.63;;
20456;SDS011;10387;51.102;6.848;2024-01-30T10:09:24;13.67;;;10.53;;
20456;SDS011;10387;51.102;6.848;2024-01-30T10:11:52;13.03;;;10.60;;
20456;SDS011;10387;51.102;6.848;2024-01-30T10:14:19;13.70;;;10.60;;
20456;SDS011;10387;51.102;6.848;2024-01-30T10:16:47;13.60;;;10.20;;
20456;SDS011;10387;51.102;6.848;2024-01-30T10:19:13;12.03;;;10.43;;
20456;SDS011;10387;51.102;6.848;2024-01-30T10:21:40;13.17;;;10.43;;
20456;SDS011;10387;51.102;6.848;2024-01-30T10:24:07;12.77;;;10.40;;
20456;SDS011;10387;51.102;6.848;2024-01-30T10:26:33;13.43;;;10.93;;
20456;SDS011;10387;51.102;6.848;2024-01-30T10:29:01;16.27;;;11.00;;
20456;SDS011;10387;51.102;6.848;2024-01-30T10:31:28;14.90;;;11.37;;
20456;SDS011;10387;51.102;6.848;2024-01-30T10:33:55;14.57;;;10.57;;
20456;SDS011;10387;51.102;6.848;2024-01-30T10:36:25;13.07;;;11.07;;
20456;SDS011;10387;51.102;6.848;2024-01-30T10:38:54;12.80;;;10.57;;
20456;SDS011;10387;51.102;6.848;2024-01-30T10:41:26;19.17;;;11.50;;
20456;SDS011;10387;51.102;6.848;2024-01-30T10:44:10;14.37;;;10.73;;
20456;SDS011;10387;51.102;6.848;2024-01-30T10:46:40;14.07;;;10.43;;
20456;SDS011;10387;51.102;6.848;2024-01-30T10:49:11;16.20;;;11.00;;
20456;SDS011;10387;51.102;6.848;2024-01-30T10:51:47;17.47;;;11.53;;
20456;SDS011;10387;51.102;6.848;2024-01-30T10:54:19;11.97;;;10.33;;
20456;SDS011;10387;51.102;6.848;2024-01-30T10:56:46;12.57;;;10.80;;
20456;SDS011;10387;51.102;6.848;2024-01-30T10:59:17;13.77;;;11.00;;
20456;SDS011;10387;51.102;6.848;2024-01-30T11:01:45;13.23;;;11.40;;
20456;SDS011;10387;51.102;6.848;2024-01-30T11:04:12;12.63;;;11.07;;
20456;SDS011;10387;51.102;6.848;2024-01-30T11:06:44;15.40;;;11.67;;
20456;SDS011;10387;51.102;6.848;2024-01-30T11:09:16;14.33;;;10.63;;
20456;SDS011;10387;51.102;6.848;2024-01-30T11:14:38;15.80;;;11.60;;
20456;SDS011;10387;51.102;6.848;2024-01-30T11:17:17;12.43;;;10.33;;
20456;SDS011;10387;51.102;6.848;2024-01-30T11:19:47;14.57;;;11.07;;
20456;SDS011;10387;51.102;6.848;2024-01-30T11:22:14;17.33;;;11.67;;
20456;SDS011;10387;51.102;6.848;2024-01-30T11:24:40;14.10;;;11.07;;
20456;SDS011;10387;51.102;6.848;2024-01-30T11:27:11;15.30;;;11.77;;
20456;SDS011;10387;51.102;6.848;2024-01-30T11:29:39;14.07;;;10.63;;
20456;SDS011;10387;51.102;6.848;2024-01-30T11:32:09;13.07;;;10.47;;
20456;SDS011;10387;51.102;6.848;2024-01-30T11:34:40;13.60;;;10.57;;
20456;SDS011;10387;51.102;6.848;2024-01-30T11:37:09;13.17;;;10.33;;
20456;SDS011;10387;51.102;6.848;2024-01-30T11:39:37;15.00;;;11.17;;
20456;SDS011;10387;51.102;6.848;2024-01-30T11:45:17;16.07;;;10.50;;
20456;SDS011;10387;51.102;6.848;2024-01-30T11:47:46;15.17;;;10.90;;
20456;SDS011;10387;51.102;6.848;2024-01-30T11:50:14;15.60;;;10.53;;
20456;SDS011;10387;51.102;6.848;2024-01-30T11:52:47;13.13;;;10.90;;
20456;SDS011;10387;51.102;6.848;2024-01-30T11:55:14;12.13;;;10.10;;
20456;SDS011;10387;51.102;6.848;2024-01-30T11:57:41;13.13;;;10.50;;
20456;SDS011;10387;51.102;6.848;2024-01-30T12:02:43;12.23;;;10.30;;
20456;SDS011;10387;51.102;6.848;2024-01-30T12:05:09;13.03;;;9.63;;
20456;SDS011;10387;51.102;6.848;2024-01-30T12:07:39;12.43;;;10.13;;
20456;SDS011;10387;51.102;6.848;2024-01-30T12:10:05;13.33;;;10.27;;
20456;SDS011;10387;51.102;6.848;2024-01-30T12:12:37;16.37;;;9.50;;
20456;SDS011;10387;51.102;6.848;2024-01-30T12:15:07;11.50;;;9.27;;
20456;SDS011;10387;51.102;6.848;2024-01-30T12:17:34;12.73;;;8.77;;
20456;SDS011;10387;51.102;6.848;2024-01-30T12:20:11;11.20;;;9.33;;
20456;SDS011;10387;51.102;6.848;2024-01-30T12:22:45;12.17;;;8.97;;
20456;SDS011;10387;51.102;6.848;2024-01-30T12:25:14;14.10;;;10.30;;
20456;SDS011;10387;51.102;6.848;2024-01-30T12:27:44;12.40;;;9.50;;
20456;SDS011;10387;51.102;6.848;2024-01-30T12:30:12;12.33;;;9.40;;
20456;SDS011;10387;51.102;6.848;2024-01-30T12:32:42;12.00;;;10.20;;
20456;SDS011;10387;51.102;6.848;2024-01-30T12:35:14;13.37;;;9.60;;
20456;SDS011;10387;51.102;6.848;2024-01-30T12:37:41;15.10;;;9.43;;
20456;SDS011;10387;51.102;6.848;2024-01-30T12:40:18;14.63;;;9.77;;
20456;SDS011;10387;51.102;6.848;2024-01-30T12:42:48;14.23;;;9.30;;
20456;SDS011;10387;51.102;6.848;2024-01-30T12:45:14;12.50;;;9.67;;
20456;SDS011;10387;51.102;6.848;2024-01-30T12:47:46;12.47;;;8.50;;
20456;SDS011;10387;51.102;6.848;2024-01-30T12:50:12;10.33;;;7.47;;
20456;SDS011;10387;51.102;6.848;2024-01-30T12:52:49;11.43;;;7.17;;
20456;SDS011;10387;51.102;6.848;2024-01-30T12:55:16;8.10;;;6.70;;
20456;SDS011;10387;51.102;6.848;2024-01-30T12:57:46;9.83;;;7.27;;
20456;SDS011;10387;51.102;6.848;2024-01-30T13:00:13;10.07;;;7.67;;
20456;SDS011;10387;51.102;6.848;2024-01-30T13:02:43;9.77;;;7.50;;
20456;SDS011;10387;51.102;6.848;2024-01-30T13:05:13;8.33;;;6.70;;
20456;SDS011;10387;51.102;6.848;2024-01-30T13:07:39;9.53;;;6.87;;
20456;SDS011;10387;51.102;6.848;2024-01-30T13:10:10;10.10;;;7.30;;
20456;SDS011;10387;51.102;6.848;2024-01-30T13:12:39;8.77;;;6.93;;
20456;SDS011;10387;51.102;6.848;2024-01-30T13:15:06;10.37;;;7.60;;
20456;SDS011;10387;51.102;6.848;2024-01-30T13:17:41;10.00;;;7.60;;
20456;SDS011;10387;51.102;6.848;2024-01-30T13:20:09;10.53;;;6.97;;
20456;SDS011;10387;51.102;6.848;2024-01-30T13:22:37;12.30;;;7.33;;
20456;SDS011;10387;51.102;6.848;2024-01-30T13:25:05;10.90;;;7.50;;
20456;SDS011;10387;51.102;6.848;2024-01-30T13:27:33;9.00;;;6.73;;
20456;SDS011;10387;51.102;6.848;2024-01-30T13:30:01;8.07;;;7.27;;
20456;SDS011;10387;51.102;6.848;2024-01-30T13:32:28;11.10;;;7.30;;
20456;SDS011;10387;51.102;6.848;2024-01-30T13:34:55;12.00;;;7.27;;
20456;SDS011;10387;51.102;6.848;2024-01-30T13:37:22;7.73;;;6.83;;
20456;SDS011;10387;51.102;6.848;2024-01-30T13:39:49;9.47;;;7.37;;
20456;SDS011;10387;51.102;6.848;2024-01-30T13:42:15;11.10;;;7.20;;
20456;SDS011;10387;51.102;6.848;2024-01-30T13:44:42;9.87;;;7.27;;
20456;SDS011;10387;51.102;6.848;2024-01-30T13:47:09;10.83;;;7.07;;
20456;SDS011;10387;51.102;6.848;2024-01-30T13:49:35;11.33;;;7.90;;
20456;SDS011;10387;51.102;6.848;2024-01-30T13:52:06;13.47;;;8.03;;
20456;SDS011;10387;51.102;6.848;2024-01-30T13:54:33;11.73;;;7.90;;
20456;SDS011;10387;51.102;6.848;2024-01-30T13:56:59;10.03;;;7.87;;
20456;SDS011;10387;51.102;6.848;2024-01-30T13:59:27;11.20;;;7.77;;
20456;SDS011;10387;51.102;6.848;2024-01-30T14:01:54;11.10;;;8.60;;
20456;SDS011;10387;51.102;6.848;2024-01-30T14:04:20;13.27;;;8.40;;
20456;SDS011;10387;51.102;6.848;2024-01-30T14:06:48;11.67;;;8.83;;
20456;SDS011;10387;51.102;6.848;2024-01-30T14:09:14;11.70;;;8.07;;
20456;SDS011;10387;51.102;6.848;2024-01-30T14:11:41;13.07;;;8.93;;
20456;SDS011;10387;51.102;6.848;2024-01-30T14:14:08;12.67;;;8.07;;
20456;SDS011;10387;51.102;6.848;2024-01-30T14:16:39;11.07;;;8.67;;
20456;SDS011;10387;51.102;6.848;2024-01-30T14:19:11;12.63;;;9.13;;
20456;SDS011;10387;51.102;6.848;2024-01-30T14:21:59;12.63;;;8.93;;
20456;SDS011;10387;51.102;6.848;2024-01-30T14:24:25;13.03;;;9.47;;
20456;SDS011;10387;51.102;6.848;2024-01-30T14:26:54;14.00;;;10.30;;
20456;SDS011;10387;51.102;6.848;2024-01-30T14:29:21;12.53;;;9.17;;
20456;SDS011;10387;51.102;6.848;2024-01-30T14:31:48;10.23;;;8.57;;
20456;SDS011;10387;51.102;6.848;2024-01-30T14:34:14;10.73;;;8.73;;
20456;SDS011;10387;51.102;6.848;2024-01-30T14:36:42;10.37;;;8.37;;
20456;SDS011;10387;51.102;6.848;2024-01-30T14:39:09;10.77;;;8.93;;
20456;SDS011;10387;51.102;6.848;2024-01-30T14:41:43;11.07;;;8.97;;
20456;SDS011;10387;51.102;6.848;2024-01-30T14:44:17;10.73;;;8.90;;
20456;SDS011;10387;51.102;6.848;2024-01-30T14:46:47;12.53;;;9.17;;
20456;SDS011;10387;51.102;6.848;2024-01-30T14:49:23;10.67;;;8.70;;